Time;durP1;ratioP1;P1;durP2;ratioP2;P2;SDS_P1;SDS_P2;PMS_P1;PMS_P2;Temp;Humidity;BMP_temperature;BMP_pressure;BME280_temperature;BME280_humidity;BME280_pressure;Samples;Min_cycle;Max_cycle;Signal;HPM_P1;HPM_P2
2024/02/28 00:00:51;;;;;;;;;;;9.60;53.80;;;;;;5079333;28;20028;-54
2024/02/28 00:03:21;;;;;;;;;;;9.60;53.80;;;;;;5077898;28;19928;-54
2024/02/28 00:05:50;;;;;;;;;;;9.50;53.80;;;;;;5082523;28;19928;-51
2024/02/28 00:08:19;;;;;;;;;;;9.50;53.80;;;;;;5080235;28;19936;-49
2024/02/28 00:30:41;;;;;;;;;;;9.10;54.20;;;;;;5056710;28;19928;-54
2024/02/28 00:33:09;;;;;;;;;;;9.20;54.60;;;;;;5051378;28;19998;-48
2024/02/28 00:35:37;;;;;;;;;;;9.10;54.20;;;;;;5056331;28;20003;-53
2024/02/28 00:38:09;;;;;;;;;;;9.00;54.10;;;;;;5062214;28;20406;-58
2024/02/28 00:40:38;;;;;;;;;;;9.00;54.00;;;;;;5061550;28;19935;-54
2024/02/28 00:43:06;;;;;;;;;;;9.00;54.00;;;;;;5062415;28;19944;-52
2024/02/28 00:45:34;;;;;;;;;;;9.00;54.30;;;;;;5061270;28;19925;-54
2024/02/28 00:48:04;;;;;;;;;;;9.00;54.00;;;;;;5059107;28;20414;-52
2024/02/28 00:50:32;;;;;;;;;;;8.90;54.00;;;;;;5061166;28;19928;-50
2024/02/28 00:53:01;;;;;;;;;;;8.90;54.10;;;;;;5063584;28;20402;-52
2024/02/28 00:55:29;;;;;;;;;;;8.90;54.00;;;;;;5061539;28;19936;-52
2024/02/28 00:57:57;;;;;;;;;;;8.90;54.10;;;;;;5058842;28;20173;-52
2024/02/28 01:00:25;;;;;;;;;;;8.80;54.20;;;;;;5064706;28;19928;-50
2024/02/28 01:02:53;;;;;;;;;;;8.80;54.10;;;;;;5060114;28;19932;-52
2024/02/28 01:05:23;;;;;;;;;;;8.80;54.10;;;;;;5050409;28;20049;-54
2024/02/28 01:07:51;;;;;;;;;;;8.80;54.10;;;;;;5055818;28;19950;-52
2024/02/28 01:10:19;;;;;;;;;;;8.70;54.40;;;;;;5066892;28;20393;-50
2024/02/28 01:12:47;;;;;;;;;;;8.70;54.10;;;;;;5066796;28;19932;-51
2024/02/28 01:15:15;;;;;;;;;;;8.70;54.50;;;;;;5057604;28;20007;-49
2024/02/28 01:17:43;;;;;;;;;;;8.70;54.10;;;;;;5059848;28;19935;-52
2024/02/28 01:20:11;;;;;;;;;;;8.70;54.10;;;;;;5059125;28;20662;-53
2024/02/28 01:22:41;;;;;;;;;;;8.80;54.10;;;;;;5062714;28;19932;-56
2024/02/28 01:25:10;;;;;;;;;;;8.70;54.10;;;;;;5054841;28;20001;-51
2024/02/28 01:27:38;;;;;;;;;;;8.70;54.10;;;;;;5065349;28;19924;-49
2024/02/28 01:30:07;;;;;;;;;;;8.80;54.20;;;;;;5064529;28;20131;-48
2024/02/28 01:32:35;;;;;;;;;;;8.70;54.10;;;;;;5077324;28;20050;-50
2024/02/28 01:35:03;;;;;;;;;;;8.80;54.20;;;;;;5083552;28;19928;-49
2024/02/28 01:37:32;;;;;;;;;;;8.70;54.20;;;;;;5076249;28;20039;-49
2024/02/28 01:40:01;;;;;;;;;;;8.80;54.20;;;;;;5086469;28;19932;-48
2024/02/28 01:42:30;;;;;;;;;;;8.80;54.30;;;;;;5083703;28;20010;-53
2024/02/28 01:44:58;;;;;;;;;;;8.90;54.40;;;;;;5079087;28;20343;-51
2024/02/28 01:47:26;;;;;;;;;;;8.90;54.40;;;;;;5071614;28;19924;-50
2024/02/28 01:49:54;;;;;;;;;;;8.90;54.40;;;;;;5063734;28;19935;-53
2024/02/28 01:52:22;;;;;;;;;;;9.00;54.40;;;;;;5079214;28;19928;-51
2024/02/28 01:54:51;;;;;;;;;;;9.00;54.30;;;;;;5082900;28;20015;-53
2024/02/28 01:57:20;;;;;;;;;;;9.00;55.00;;;;;;5076400;27;19981;-53
2024/02/28 01:59:48;;;;;;;;;;;9.10;54.40;;;;;;5084659;28;19974;-53
2024/02/28 02:02:17;;;;;;;;;;;9.10;54.30;;;;;;5083790;28;19935;-50
2024/02/28 02:04:45;;;;;;;;;;;9.20;54.40;;;;;;5073467;28;19931;-54
2024/02/28 02:07:13;;;;;;;;;;;9.30;54.30;;;;;;5080199;28;20018;-50
2024/02/28 02:09:41;;;;;;;;;;;9.40;54.30;;;;;;5077616;28;19928;-49
2024/02/28 02:12:09;;;;;;;;;;;9.40;54.80;;;;;;5080395;28;20394;-47
2024/02/28 02:14:39;;;;;;;;;;;9.40;54.20;;;;;;5081528;28;19927;-51
2024/02/28 02:17:07;;;;;;;;;;;9.40;54.20;;;;;;5084918;28;19980;-50
2024/02/28 02:19:35;;;;;;;;;;;9.40;54.20;;;;;;5078807;28;19933;-54
2024/02/28 02:22:05;;;;;;;;;;;9.40;54.20;;;;;;5086022;27;19935;-52
2024/02/28 02:24:34;;;;;;;;;;;9.40;54.10;;;;;;5087201;28;20382;-48
2024/02/28 02:27:04;;;;;;;;;;;9.40;54.30;;;;;;5078633;28;19932;-51
2024/02/28 02:29:32;;;;;;;;;;;9.40;54.10;;;;;;5082224;28;19924;-53
2024/02/28 02:32:00;;;;;;;;;;;9.40;54.10;;;;;;5071279;28;20006;-52
2024/02/28 02:34:28;;;;;;;;;;;9.50;54.20;;;;;;5086201;28;19934;-50
2024/02/28 02:36:56;;;;;;;;;;;9.50;54.20;;;;;;5084881;28;20034;-50
2024/02/28 02:39:25;;;;;;;;;;;9.50;54.20;;;;;;5072717;27;20604;-52
2024/02/28 02:41:54;;;;;;;;;;;9.50;54.20;;;;;;5087290;28;20034;-48
2024/02/28 02:44:22;;;;;;;;;;;9.50;54.20;;;;;;5084020;28;19928;-48
2024/02/28 02:46:50;;;;;;;;;;;9.60;54.20;;;;;;5083609;28;19932;-48
2024/02/28 02:49:19;;;;;;;;;;;9.60;54.20;;;;;;5074366;28;19924;-52
2024/02/28 02:51:47;;;;;;;;;;;9.60;54.20;;;;;;5079195;28;19928;-51
2024/02/28 02:54:15;;;;;;;;;;;9.50;54.20;;;;;;5082981;28;19928;-50
2024/02/28 02:56:43;;;;;;;;;;;9.60;54.30;;;;;;5080727;28;19928;-53
2024/02/28 02:59:13;;;;;;;;;;;9.70;54.50;;;;;;5076414;28;19936;-51
2024/02/28 03:01:41;;;;;;;;;;;9.80;54.30;;;;;;5081326;28;20468;-52
2024/02/28 03:04:09;;;;;;;;;;;9.90;54.20;;;;;;5083259;28;20029;-52
2024/02/28 03:06:37;;;;;;;;;;;10.00;54.40;;;;;;5076083;28;19932;-56
2024/02/28 03:09:07;;;;;;;;;;;10.10;54.10;;;;;;5082034;27;19934;-52
2024/02/28 03:11:35;;;;;;;;;;;10.20;54.10;;;;;;5080477;28;19934;-52
2024/02/28 03:14:03;;;;;;;;;;;10.20;54.00;;;;;;5083387;28;19924;-53
2024/02/28 03:16:37;;;;;;;;;;;10.20;54.00;;;;;;5077321;28;19934;-53
2024/02/28 03:19:06;;;;;;;;;;;10.30;54.00;;;;;;5081550;28;19934;-52
2024/02/28 03:21:34;;;;;;;;;;;10.40;54.00;;;;;;5081036;28;19978;-51
2024/02/28 03:24:02;;;;;;;;;;;10.40;53.90;;;;;;5083288;28;19957;-51
2024/02/28 03:26:30;;;;;;;;;;;10.50;53.80;;;;;;5081726;28;19928;-52
2024/02/28 03:28:58;;;;;;;;;;;10.50;53.80;;;;;;5064819;28;20536;-50
2024/02/28 03:31:26;;;;;;;;;;;10.50;53.70;;;;;;5071185;28;20917;-50
2024/02/28 03:33:56;;;;;;;;;;;10.40;53.70;;;;;;5086243;28;19931;-54
2024/02/28 03:36:24;;;;;;;;;;;10.40;53.70;;;;;;5076838;28;19930;-52
2024/02/28 03:38:52;;;;;;;;;;;10.40;53.70;;;;;;5072789;28;20358;-52
2024/02/28 03:41:20;;;;;;;;;;;10.50;53.70;;;;;;5074373;28;19928;-52
2024/02/28 03:43:48;;;;;;;;;;;10.50;53.70;;;;;;5084783;28;19934;-52
2024/02/28 03:46:16;;;;;;;;;;;10.50;54.00;;;;;;5080364;28;19959;-48
2024/02/28 03:48:44;;;;;;;;;;;10.50;53.70;;;;;;5088505;28;19927;-50
2024/02/28 03:51:14;;;;;;;;;;;10.50;53.70;;;;;;5077468;28;19928;-55
2024/02/28 03:53:42;;;;;;;;;;;10.40;53.60;;;;;;5081959;27;19928;-54
2024/02/28 03:56:11;;;;;;;;;;;10.40;54.00;;;;;;5079248;28;20625;-49
2024/02/28 03:58:41;;;;;;;;;;;10.50;53.70;;;;;;5081483;28;19932;-53
2024/02/28 04:01:09;;;;;;;;;;;10.40;53.70;;;;;;5074125;27;19928;-49
2024/02/28 04:03:38;;;;;;;;;;;10.40;53.70;;;;;;5085388;28;19939;-52
2024/02/28 04:06:06;;;;;;;;;;;10.40;53.80;;;;;;5079257;28;20427;-52
2024/02/28 04:08:36;;;;;;;;;;;10.50;53.80;;;;;;5079918;28;19923;-50
2024/02/28 04:11:04;;;;;;;;;;;10.50;53.90;;;;;;5079856;28;19927;-54
2024/02/28 04:13:32;;;;;;;;;;;10.50;53.80;;;;;;5079550;28;19928;-53
2024/02/28 04:16:00;;;;;;;;;;;10.40;53.90;;;;;;5077313;27;19924;-53
2024/02/28 04:18:29;;;;;;;;;;;10.50;54.00;;;;;;5078956;28;20384;-51
2024/02/28 04:20:57;;;;;;;;;;;10.50;54.00;;;;;;5084546;27;20061;-51
2024/02/28 04:23:25;;;;;;;;;;;10.50;54.00;;;;;;5072073;28;20461;-52
2024/02/28 04:25:55;;;;;;;;;;;10.50;53.90;;;;;;5084246;28;19931;-53
2024/02/28 04:28:23;;;;;;;;;;;10.60;54.00;;;;;;5079268;28;19928;-54
2024/02/28 04:30:51;;;;;;;;;;;10.60;54.00;;;;;;5081280;28;20678;-51
2024/02/28 04:33:20;;;;;;;;;;;10.60;53.90;;;;;;5071654;28;19931;-52
2024/02/28 04:35:48;;;;;;;;;;;10.60;54.00;;;;;;5081585;28;19924;-54
2024/02/28 04:38:16;;;;;;;;;;;10.70;54.00;;;;;;5084848;28;19997;-51
2024/02/28 04:40:44;;;;;;;;;;;10.70;54.00;;;;;;5080111;28;19932;-50
2024/02/28 04:43:14;;;;;;;;;;;10.70;53.90;;;;;;5069609;28;20393;-53
2024/02/28 04:45:42;;;;;;;;;;;10.70;53.90;;;;;;5076189;28;19963;-50
2024/02/28 04:48:10;;;;;;;;;;;10.70;53.90;;;;;;5078884;28;20014;-49
2024/02/28 04:50:38;;;;;;;;;;;10.70;53.90;;;;;;5078186;28;19927;-51
2024/02/28 04:53:06;;;;;;;;;;;10.70;53.90;;;;;;5080909;28;19932;-51
2024/02/28 04:55:34;;;;;;;;;;;10.70;53.90;;;;;;5056297;28;19931;-50
2024/02/28 04:58:02;;;;;;;;;;;10.80;54.00;;;;;;5086024;28;19934;-51
2024/02/28 05:00:32;;;;;;;;;;;10.90;54.00;;;;;;5069107;28;19928;-49
2024/02/28 05:03:00;;;;;;;;;;;10.90;53.90;;;;;;5070607;28;19967;-52
2024/02/28 05:05:28;;;;;;;;;;;11.00;53.90;;;;;;5073376;28;19985;-52
2024/02/28 05:07:56;;;;;;;;;;;11.00;53.90;;;;;;5079143;28;19931;-51
2024/02/28 05:10:24;;;;;;;;;;;11.10;53.90;;;;;;5079089;28;19932;-52
2024/02/28 05:12:52;;;;;;;;;;;11.10;54.20;;;;;;5076527;28;19928;-54
2024/02/28 05:15:21;;;;;;;;;;;11.00;53.90;;;;;;5071753;28;19963;-50
2024/02/28 05:17:52;;;;;;;;;;;11.00;53.90;;;;;;5071743;28;20397;-53
2024/02/28 05:20:20;;;;;;;;;;;11.00;54.00;;;;;;5078337;28;19967;-51
2024/02/28 05:22:48;;;;;;;;;;;11.00;54.00;;;;;;5077842;28;19928;-53
2024/02/28 05:25:17;;;;;;;;;;;11.00;54.10;;;;;;5058268;28;20848;-53
2024/02/28 05:27:45;;;;;;;;;;;11.00;54.10;;;;;;5082622;28;20024;-55
2024/02/28 05:30:13;;;;;;;;;;;11.00;54.10;;;;;;5088727;28;20339;-52
2024/02/28 05:32:41;;;;;;;;;;;11.00;54.20;;;;;;5082606;28;19934;-54
2024/02/28 05:35:12;;;;;;;;;;;11.00;54.20;;;;;;5082358;28;19936;-51
2024/02/28 05:37:40;;;;;;;;;;;11.00;54.20;;;;;;5075445;28;20499;-53
2024/02/28 05:40:09;;;;;;;;;;;11.10;54.20;;;;;;5082101;28;20363;-51
2024/02/28 05:42:37;;;;;;;;;;;11.10;54.20;;;;;;5079013;28;19943;-57
2024/02/28 05:45:05;;;;;;;;;;;11.20;54.10;;;;;;5080191;28;20500;-53
2024/02/28 05:47:34;;;;;;;;;;;11.30;54.10;;;;;;5075945;28;20310;-50
2024/02/28 05:50:02;;;;;;;;;;;11.50;55.20;;;;;;5080163;28;19932;-53
2024/02/28 05:52:31;;;;;;;;;;;11.40;53.90;;;;;;5075236;28;20035;-55
2024/02/28 05:55:00;;;;;;;;;;;11.40;53.90;;;;;;5077095;28;20334;-51
2024/02/28 05:57:28;;;;;;;;;;;11.40;53.90;;;;;;5077811;28;19985;-51
2024/02/28 05:59:56;;;;;;;;;;;11.40;53.90;;;;;;5081697;28;19934;-52
2024/02/28 06:02:24;;;;;;;;;;;11.40;53.90;;;;;;5082716;28;20381;-51
2024/02/28 06:04:53;;;;;;;;;;;11.50;54.30;;;;;;5083326;28;20049;-54
2024/02/28 06:07:21;;;;;;;;;;;11.50;53.80;;;;;;5080954;27;20100;-55
2024/02/28 06:09:50;;;;;;;;;;;11.50;53.80;;;;;;5079235;28;20379;-57
2024/02/28 06:12:18;;;;;;;;;;;11.50;53.80;;;;;;5083762;27;19931;-54
2024/02/28 06:14:47;;;;;;;;;;;11.60;53.80;;;;;;5080960;28;19927;-59
2024/02/28 06:17:15;;;;;;;;;;;11.60;53.70;;;;;;5066698;28;19958;-57
2024/02/28 06:19:43;;;;;;;;;;;11.60;53.70;;;;;;5067191;28;19931;-53
2024/02/28 06:22:11;;;;;;;;;;;11.70;53.80;;;;;;5084562;27;19951;-57
2024/02/28 06:24:39;;;;;;;;;;;11.70;53.80;;;;;;5083000;28;20374;-56
2024/02/28 06:27:12;;;;;;;;;;;11.70;53.70;;;;;;5082166;28;20405;-55
2024/02/28 06:29:40;;;;;;;;;;;11.70;53.70;;;;;;5077346;28;20326;-60
2024/02/28 06:32:08;;;;;;;;;;;11.80;53.70;;;;;;5091467;28;19935;-58
2024/02/28 06:34:36;;;;;;;;;;;11.80;53.60;;;;;;5084032;28;19935;-58
2024/02/28 06:37:05;;;;;;;;;;;11.80;53.60;;;;;;5080002;28;19935;-59
2024/02/28 06:39:33;;;;;;;;;;;11.90;53.60;;;;;;5071944;28;19970;-58
2024/02/28 06:42:01;;;;;;;;;;;11.90;53.70;;;;;;5085221;27;19935;-56
2024/02/28 06:44:30;;;;;;;;;;;12.00;53.70;;;;;;5066652;28;20027;-57
2024/02/28 06:46:59;;;;;;;;;;;12.00;53.60;;;;;;5083166;28;19939;-56
2024/02/28 06:49:27;;;;;;;;;;;12.00;53.60;;;;;;5081764;28;20125;-55
2024/02/28 06:51:58;;;;;;;;;;;12.00;53.60;;;;;;5063642;28;20398;-55
2024/02/28 06:54:26;;;;;;;;;;;12.10;53.50;;;;;;5080056;28;19947;-55
2024/02/28 06:56:55;;;;;;;;;;;12.10;53.50;;;;;;5083488;28;20386;-55
2024/02/28 06:59:23;;;;;;;;;;;12.20;53.60;;;;;;5073888;28;20007;-58
2024/02/28 07:01:52;;;;;;;;;;;12.20;53.60;;;;;;5081407;28;19962;-54
2024/02/28 07:04:20;;;;;;;;;;;12.20;53.60;;;;;;5080295;28;19928;-50
2024/02/28 07:06:48;;;;;;;;;;;12.20;53.60;;;;;;5079834;28;20043;-53
2024/02/28 07:09:17;;;;;;;;;;;12.20;53.70;;;;;;5077936;28;19931;-53
2024/02/28 07:11:45;;;;;;;;;;;12.30;53.70;;;;;;5077252;28;19928;-58
2024/02/28 07:14:13;;;;;;;;;;;12.40;53.80;;;;;;5082642;28;20572;-56
2024/02/28 07:16:44;;;;;;;;;;;12.40;53.70;;;;;;5082195;28;19928;-52
2024/02/28 07:19:15;;;;;;;;;;;12.50;53.70;;;;;;5076606;28;19927;-51
2024/02/28 07:21:43;;;;;;;;;;;12.50;53.60;;;;;;5090828;27;19924;-59
2024/02/28 07:24:11;;;;;;;;;;;12.50;53.50;;;;;;5081485;28;20004;-59
2024/02/28 07:26:40;;;;;;;;;;;12.50;53.40;;;;;;5074050;28;19952;-56
2024/02/28 07:29:09;;;;;;;;;;;12.50;53.50;;;;;;4997585;28;19932;-57
2024/02/28 07:31:38;;;;;;;;;;;12.50;53.50;;;;;;4995142;28;19989;-58
2024/02/28 07:34:07;;;;;;;;;;;12.50;53.60;;;;;;5034135;28;20504;-58
2024/02/28 07:36:37;;;;;;;;;;;12.50;53.50;;;;;;5061326;28;19927;-58
2024/02/28 07:39:06;;;;;;;;;;;12.60;53.50;;;;;;5061342;28;20007;-52
2024/02/28 07:41:34;;;;;;;;;;;12.60;53.50;;;;;;5059273;28;19939;-60
2024/02/28 07:44:02;;;;;;;;;;;12.60;53.50;;;;;;5046091;28;19928;-59
2024/02/28 07:46:30;;;;;;;;;;;12.70;53.40;;;;;;5061886;28;19939;-58
2024/02/28 07:48:58;;;;;;;;;;;12.70;53.40;;;;;;5072194;28;19932;-60
2024/02/28 07:51:27;;;;;;;;;;;12.70;53.40;;;;;;5061776;28;20147;-57
2024/02/28 07:53:56;;;;;;;;;;;12.70;53.40;;;;;;5046878;28;19935;-55
2024/02/28 07:56:24;;;;;;;;;;;12.80;53.40;;;;;;5065365;28;19951;-56
2024/02/28 07:58:52;;;;;;;;;;;12.80;53.40;;;;;;5063078;28;19928;-56
2024/02/28 08:01:22;;;;;;;;;;;12.80;53.40;;;;;;4995246;28;20004;-58
2024/02/28 08:03:50;;;;;;;;;;;12.90;53.40;;;;;;5061932;28;20607;-55
2024/02/28 08:06:18;;;;;;;;;;;12.90;53.40;;;;;;5067477;28;21015;-58
2024/02/28 08:08:47;;;;;;;;;;;13.00;53.40;;;;;;5068878;28;20290;-57
2024/02/28 08:11:16;;;;;;;;;;;13.00;53.40;;;;;;5042423;28;19939;-59
2024/02/28 08:13:45;;;;;;;;;;;13.00;53.40;;;;;;5070551;28;21561;-56
2024/02/28 08:16:13;;;;;;;;;;;13.00;53.40;;;;;;5067731;28;20253;-58
2024/02/28 08:18:41;;;;;;;;;;;13.10;53.40;;;;;;5070025;28;19938;-52
2024/02/28 08:21:09;;;;;;;;;;;13.10;53.50;;;;;;5066701;28;20264;-52
2024/02/28 08:23:38;;;;;;;;;;;13.20;53.50;;;;;;5065651;28;19939;-52
2024/02/28 08:26:06;;;;;;;;;;;13.30;53.50;;;;;;5071110;28;19927;-48
2024/02/28 08:28:36;;;;;;;;;;;13.30;53.40;;;;;;5073125;28;19938;-56
2024/02/28 08:31:04;;;;;;;;;;;13.30;53.50;;;;;;5069350;28;19928;-53
2024/02/28 08:33:32;;;;;;;;;;;13.30;53.20;;;;;;5073464;28;19935;-53
2024/02/28 08:36:01;;;;;;;;;;;13.30;53.20;;;;;;5074461;28;19931;-56
2024/02/28 08:38:29;;;;;;;;;;;13.40;53.30;;;;;;5074956;28;20394;-52
2024/02/28 08:40:57;;;;;;;;;;;13.40;53.30;;;;;;5074948;28;19934;-54
2024/02/28 08:43:25;;;;;;;;;;;13.40;53.40;;;;;;5065085;28;19976;-54
2024/02/28 08:45:55;;;;;;;;;;;13.50;53.30;;;;;;5073941;28;20140;-51
2024/02/28 08:48:23;;;;;;;;;;;13.50;53.30;;;;;;5071137;28;20095;-51
2024/02/28 08:50:51;;;;;;;;;;;13.50;53.20;;;;;;5066750;28;20386;-51
2024/02/28 08:53:20;;;;;;;;;;;13.60;53.20;;;;;;5067311;28;19932;-52
2024/02/28 08:55:48;;;;;;;;;;;13.60;53.20;;;;;;5084444;28;19931;-52
2024/02/28 08:58:17;;;;;;;;;;;13.70;53.20;;;;;;5058729;28;20647;-53
2024/02/28 09:00:45;;;;;;;;;;;13.70;53.20;;;;;;5078290;28;19944;-51
2024/02/28 09:03:15;;;;;;;;;;;13.70;53.10;;;;;;5070999;28;19927;-54
2024/02/28 09:05:43;;;;;;;;;;;13.80;53.20;;;;;;5083220;28;19956;-51
2024/02/28 09:08:11;;;;;;;;;;;13.80;53.10;;;;;;5090707;28;19957;-51
2024/02/28 09:10:41;;;;;;;;;;;13.90;53.20;;;;;;5083024;28;19927;-52
2024/02/28 09:13:12;;;;;;;;;;;13.90;53.10;;;;;;5076318;28;19944;-51
2024/02/28 09:15:40;;;;;;;;;;;13.90;53.10;;;;;;5080195;28;20088;-48
2024/02/28 09:18:08;;;;;;;;;;;14.00;53.10;;;;;;5079035;28;20681;-51
2024/02/28 09:20:38;;;;;;;;;;;14.00;53.00;;;;;;5083294;28;20401;-50
2024/02/28 09:23:06;;;;;;;;;;;14.10;53.00;;;;;;5085244;28;20413;-46
2024/02/28 09:25:35;;;;;;;;;;;14.20;53.10;;;;;;5077892;28;19935;-52
2024/02/28 09:28:03;;;;;;;;;;;14.20;53.60;;;;;;5079101;28;20016;-50
2024/02/28 09:30:32;;;;;;;;;;;14.30;53.00;;;;;;5080423;28;19934;-51
2024/02/28 09:33:13;;;;;;;;;;;14.30;53.00;;;;;;5080791;28;19928;-53
2024/02/28 09:35:43;;;;;;;;;;;14.30;53.00;;;;;;5083595;28;19932;-49
2024/02/28 09:38:11;;;;;;;;;;;14.40;52.90;;;;;;5082071;28;20386;-49
2024/02/28 09:40:39;;;;;;;;;;;14.40;53.00;;;;;;5074735;28;19932;-56
2024/02/28 09:43:11;;;;;;;;;;;14.40;52.90;;;;;;5081936;28;20752;-55
2024/02/28 09:45:40;;;;;;;;;;;14.50;52.90;;;;;;5083390;28;20681;-56
2024/02/28 09:48:12;;;;;;;;;;;14.60;53.10;;;;;;5085897;28;19935;-52
2024/02/28 09:50:41;;;;;;;;;;;14.60;53.00;;;;;;5084356;28;19935;-55
2024/02/28 09:53:11;;;;;;;;;;;14.70;52.90;;;;;;5084101;28;20389;-52
2024/02/28 09:55:39;;;;;;;;;;;14.70;53.00;;;;;;5080708;28;20035;-54
2024/02/28 09:58:08;;;;;;;;;;;14.80;52.90;;;;;;5089442;28;19967;-51
2024/02/28 10:00:37;;;;;;;;;;;14.80;52.90;;;;;;5084204;28;19939;-51
2024/02/28 10:03:06;;;;;;;;;;;14.90;52.90;;;;;;5080555;28;19932;-44
2024/02/28 10:05:34;;;;;;;;;;;14.90;52.90;;;;;;5080460;28;19931;-48
2024/02/28 10:08:02;;;;;;;;;;;15.00;53.20;;;;;;5081705;28;19932;-49
2024/02/28 10:10:32;;;;;;;;;;;15.10;52.80;;;;;;5089887;28;19932;-48
2024/02/28 10:13:00;;;;;;;;;;;15.10;52.70;;;;;;5086988;28;20027;-52
2024/02/28 10:15:28;;;;;;;;;;;15.20;52.70;;;;;;5076327;28;19931;-47
2024/02/28 10:17:56;;;;;;;;;;;15.30;52.70;;;;;;5063163;28;19927;-50
2024/02/28 10:20:25;;;;;;;;;;;15.40;52.60;;;;;;5085083;28;19924;-55
2024/02/28 10:22:53;;;;;;;;;;;15.50;52.60;;;;;;5080968;28;19935;-53
2024/02/28 10:25:21;;;;;;;;;;;15.50;52.50;;;;;;5085515;28;20548;-51
2024/02/28 10:27:51;;;;;;;;;;;15.60;52.60;;;;;;5083219;28;19939;-53
2024/02/28 10:30:19;;;;;;;;;;;15.60;52.60;;;;;;5085489;28;20014;-50
2024/02/28 10:32:50;;;;;;;;;;;15.70;52.60;;;;;;5080779;28;19942;-50
2024/02/28 10:35:19;;;;;;;;;;;15.70;52.60;;;;;;5078281;28;19966;-53
2024/02/28 10:37:48;;;;;;;;;;;15.80;52.60;;;;;;5082654;28;19935;-52
2024/02/28 10:40:16;;;;;;;;;;;15.90;52.50;;;;;;5084665;28;19932;-52
2024/02/28 10:42:44;;;;;;;;;;;15.90;52.50;;;;;;5091768;28;19952;-55
2024/02/28 10:45:14;;;;;;;;;;;16.00;52.50;;;;;;5074529;28;19928;-52
2024/02/28 10:47:57;;;;;;;;;;;16.00;52.40;;;;;;5086342;28;19959;-51
2024/02/28 10:50:25;;;;;;;;;;;16.10;52.40;;;;;;5091054;28;19924;-52
2024/02/28 10:52:54;;;;;;;;;;;16.10;52.40;;;;;;5082907;28;19963;-48
2024/02/28 10:55:24;;;;;;;;;;;16.20;52.40;;;;;;5072590;28;20509;-53
2024/02/28 10:57:56;;;;;;;;;;;16.30;52.40;;;;;;5082752;28;19928;-51
2024/02/28 11:00:25;;;;;;;;;;;16.30;52.30;;;;;;5090386;28;20018;-50
2024/02/28 11:02:54;;;;;;;;;;;16.40;52.60;;;;;;5080003;28;20010;-49
2024/02/28 11:05:22;;;;;;;;;;;16.50;52.30;;;;;;5076980;28;19997;-48
2024/02/28 11:07:52;;;;;;;;;;;16.50;52.20;;;;;;5081641;28;19924;-48
2024/02/28 11:10:24;;;;;;;;;;;16.50;52.20;;;;;;5080503;28;19928;-48
2024/02/28 11:12:55;;;;;;;;;;;16.50;52.20;;;;;;5087745;28;20301;-48
2024/02/28 11:15:26;;;;;;;;;;;16.50;52.20;;;;;;5071032;28;19924;-47
2024/02/28 11:17:55;;;;;;;;;;;16.60;52.20;;;;;;5081802;28;19924;-46
2024/02/28 11:20:23;;;;;;;;;;;16.50;52.10;;;;;;5079134;27;20417;-48
2024/02/28 11:22:57;;;;;;;;;;;16.50;52.00;;;;;;5082900;28;20002;-50
2024/02/28 11:25:25;;;;;;;;;;;16.50;52.20;;;;;;5080507;28;20454;-45
2024/02/28 11:27:55;;;;;;;;;;;16.50;52.20;;;;;;5077482;28;20431;-51
2024/02/28 11:30:24;;;;;;;;;;;16.60;52.30;;;;;;5086776;28;19963;-48
2024/02/28 11:32:53;;;;;;;;;;;16.60;52.20;;;;;;5080512;28;20330;-46
2024/02/28 11:35:24;;;;;;;;;;;16.70;52.30;;;;;;5073470;28;19928;-46
2024/02/28 11:37:56;;;;;;;;;;;16.80;52.30;;;;;;5082183;28;19928;-48
2024/02/28 11:40:26;;;;;;;;;;;16.90;52.20;;;;;;5066617;28;19928;-48
2024/02/28 11:42:55;;;;;;;;;;;16.90;52.10;;;;;;5033429;27;19931;-51
2024/02/28 11:45:23;;;;;;;;;;;16.90;52.00;;;;;;5073558;28;20655;-51
2024/02/28 11:47:51;;;;;;;;;;;16.80;52.00;;;;;;5079977;28;20080;-51
2024/02/28 11:50:19;;;;;;;;;;;16.80;51.90;;;;;;5080250;28;19950;-53
2024/02/28 11:52:49;;;;;;;;;;;16.80;52.00;;;;;;5071736;28;19932;-52
2024/02/28 11:55:17;;;;;;;;;;;16.80;52.00;;;;;;5075776;28;20067;-50
2024/02/28 11:57:46;;;;;;;;;;;16.80;52.00;;;;;;5078866;28;19951;-48
2024/02/28 12:00:14;;;;;;;;;;;16.80;52.70;;;;;;5077017;28;19924;-48
2024/02/28 12:02:42;;;;;;;;;;;16.80;52.10;;;;;;5078671;28;19928;-50
2024/02/28 12:05:11;;;;;;;;;;;16.80;52.00;;;;;;5080517;28;19924;-50
2024/02/28 12:07:39;;;;;;;;;;;16.70;52.00;;;;;;5081528;27;19932;-50
2024/02/28 12:10:09;;;;;;;;;;;16.60;51.90;;;;;;5085880;27;19928;-52
2024/02/28 12:12:38;;;;;;;;;;;16.60;52.10;;;;;;5076635;27;20006;-51
2024/02/28 12:15:06;;;;;;;;;;;16.60;52.20;;;;;;5076853;27;19928;-47
2024/02/28 12:17:36;;;;;;;;;;;16.60;52.20;;;;;;5063009;28;19947;-50
2024/02/28 12:20:06;;;;;;;;;;;16.60;52.20;;;;;;5080593;28;20501;-50
2024/02/28 12:22:34;;;;;;;;;;;16.60;52.30;;;;;;5085995;28;19928;-50
2024/02/28 12:25:06;;;;;;;;;;;16.60;52.20;;;;;;5084872;28;22062;-47
2024/02/28 12:27:36;;;;;;;;;;;16.50;52.10;;;;;;5073938;28;20010;-49
2024/02/28 12:30:04;;;;;;;;;;;16.50;52.20;;;;;;5079022;28;20083;-53
2024/02/28 12:32:32;;;;;;;;;;;16.50;52.30;;;;;;5084885;28;19928;-49
2024/02/28 12:35:01;;;;;;;;;;;16.40;52.20;;;;;;5076335;28;20305;-51
2024/02/28 12:37:29;;;;;;;;;;;16.40;52.20;;;;;;5076064;28;21242;-51
2024/02/28 12:39:57;;;;;;;;;;;16.30;52.20;;;;;;5081299;28;20014;-49
2024/02/28 12:42:25;;;;;;;;;;;16.20;52.20;;;;;;5084180;28;19928;-49
2024/02/28 12:44:55;;;;;;;;;;;16.10;52.20;;;;;;5075655;28;20747;-50
2024/02/28 12:47:24;;;;;;;;;;;16.10;52.30;;;;;;5080088;28;19939;-53
2024/02/28 12:49:52;;;;;;;;;;;16.00;52.50;;;;;;5086246;28;19935;-55
2024/02/28 12:52:21;;;;;;;;;;;16.00;52.40;;;;;;5081647;28;19928;-51
2024/02/28 12:54:49;;;;;;;;;;;16.00;52.50;;;;;;5082520;28;19935;-51
2024/02/28 12:57:17;;;;;;;;;;;16.00;52.40;;;;;;5059888;28;20594;-50
2024/02/28 12:59:45;;;;;;;;;;;15.90;52.40;;;;;;5081044;28;19924;-48
2024/02/28 13:02:21;;;;;;;;;;;15.90;52.40;;;;;;5002964;28;19932;-51
2024/02/28 13:04:50;;;;;;;;;;;15.90;52.40;;;;;;5053146;28;20267;-53
2024/02/28 13:07:19;;;;;;;;;;;15.80;52.40;;;;;;5086396;28;20014;-50
2024/02/28 13:09:47;;;;;;;;;;;15.80;52.50;;;;;;5084365;28;19959;-53
2024/02/28 13:12:15;;;;;;;;;;;15.80;52.40;;;;;;5088796;28;19932;-54
2024/02/28 13:14:44;;;;;;;;;;;15.70;52.50;;;;;;5087371;28;20346;-54
2024/02/28 13:17:16;;;;;;;;;;;15.70;52.50;;;;;;5069226;28;20666;-51
2024/02/28 13:19:45;;;;;;;;;;;15.60;52.60;;;;;;5080790;28;19932;-54
2024/02/28 13:22:14;;;;;;;;;;;15.60;52.60;;;;;;5083679;28;19928;-55
2024/02/28 13:24:42;;;;;;;;;;;15.60;52.60;;;;;;5081979;27;20682;-52
2024/02/28 13:27:12;;;;;;;;;;;15.60;52.60;;;;;;5078027;27;19930;-53
2024/02/28 13:29:40;;;;;;;;;;;15.60;52.60;;;;;;5087916;27;20035;-57
2024/02/28 13:32:09;;;;;;;;;;;15.60;52.60;;;;;;5069669;28;19935;-54
2024/02/28 13:34:37;;;;;;;;;;;15.60;52.60;;;;;;5091440;27;20385;-48
2024/02/28 13:37:08;;;;;;;;;;;15.60;52.60;;;;;;5086055;27;19939;-52
2024/02/28 13:39:39;;;;;;;;;;;15.60;52.70;;;;;;5069232;28;19993;-54
2024/02/28 13:42:09;;;;;;;;;;;15.60;52.60;;;;;;5068710;28;20450;-49
2024/02/28 13:44:37;;;;;;;;;;;15.60;52.60;;;;;;5081986;27;19928;-56
2024/02/28 13:47:06;;;;;;;;;;;15.60;52.60;;;;;;5085126;27;20392;-53
2024/02/28 13:49:35;;;;;;;;;;;15.50;53.00;;;;;;5071284;27;19928;-53
2024/02/28 13:52:04;;;;;;;;;;;15.60;52.70;;;;;;5084474;28;20422;-51
2024/02/28 13:54:34;;;;;;;;;;;15.60;52.70;;;;;;5084197;28;19935;-58
2024/02/28 13:57:04;;;;;;;;;;;15.60;53.10;;;;;;5090100;27;19927;-51
2024/02/28 13:59:36;;;;;;;;;;;15.60;52.60;;;;;;5076888;28;20022;-55
2024/02/28 14:02:04;;;;;;;;;;;15.70;52.70;;;;;;5083179;28;19934;-51
2024/02/28 14:04:32;;;;;;;;;;;15.70;52.60;;;;;;5083844;28;19978;-52
2024/02/28 14:07:00;;;;;;;;;;;15.70;52.60;;;;;;5082389;27;19932;-51
2024/02/28 14:09:28;;;;;;;;;;;15.70;52.60;;;;;;5061297;28;19935;-51
2024/02/28 14:11:58;;;;;;;;;;;15.80;52.70;;;;;;5080642;28;20254;-49
2024/02/28 14:14:27;;;;;;;;;;;15.90;52.70;;;;;;5083188;27;20006;-47
2024/02/28 14:16:55;;;;;;;;;;;15.90;52.60;;;;;;5082895;27;19928;-52
2024/02/28 14:19:23;;;;;;;;;;;16.00;53.00;;;;;;5076743;28;20349;-51
2024/02/28 14:21:51;;;;;;;;;;;16.00;52.60;;;;;;5085717;28;19928;-51
2024/02/28 14:24:20;;;;;;;;;;;16.00;52.60;;;;;;5082271;27;19961;-55
2024/02/28 14:26:48;;;;;;;;;;;16.00;52.40;;;;;;5084700;27;19928;-51
2024/02/28 14:29:18;;;;;;;;;;;15.90;52.40;;;;;;5062352;28;19923;-50
2024/02/28 14:31:47;;;;;;;;;;;15.90;52.60;;;;;;5077773;28;19924;-49
2024/02/28 14:34:15;;;;;;;;;;;15.90;52.50;;;;;;5083708;28;19974;-56
2024/02/28 14:36:43;;;;;;;;;;;15.90;52.60;;;;;;5082162;28;20619;-55
2024/02/28 14:39:15;;;;;;;;;;;15.90;53.20;;;;;;5074407;27;19931;-53
2024/02/28 14:41:44;;;;;;;;;;;15.90;52.60;;;;;;5081258;27;19927;-54
2024/02/28 14:44:13;;;;;;;;;;;15.90;52.60;;;;;;5085260;27;19995;-57
2024/02/28 14:46:42;;;;;;;;;;;15.80;52.50;;;;;;5073796;28;19964;-55